Time;durP1;ratioP1;P1;durP2;ratioP2;P2;SDS_P1;SDS_P2;PMS_P1;PMS_P2;Temp;Humidity;BMP_temperature;BMP_pressure;BME280_temperature;BME280_humidity;BME280_pressure;Samples;Min_cycle;Max_cycle;Signal;HPM_P1;HPM_P2
2020/12/17 00:00:59;;;;;;;4.35;3.60;;;21.40;55.20;;;;;;5191243;28;20499;-77
2020/12/17 00:03:30;;;;;;;5.25;3.90;;;21.40;55.10;;;;;;5210143;28;20049;-78
2020/12/17 00:06:00;;;;;;;8.98;3.88;;;21.40;55.10;;;;;;5209297;28;20033;-77
2020/12/17 00:08:31;;;;;;;5.57;3.65;;;21.40;55.10;;;;;;5209361;28;21521;-79
2020/12/17 00:11:01;;;;;;;7.10;3.60;;;21.40;55.10;;;;;;5209234;28;20025;-78
2020/12/17 00:13:32;;;;;;;5.55;3.40;;;21.40;55.10;;;;;;5225655;28;20036;-77
2020/12/17 00:16:03;;;;;;;5.75;3.88;;;21.40;55.10;;;;;;5191825;28;20041;-77
2020/12/17 00:18:34;;;;;;;4.22;3.67;;;21.40;55.00;;;;;;5209058;28;20029;-78
2020/12/17 00:21:04;;;;;;;6.18;3.80;;;21.40;55.00;;;;;;5208526;28;20495;-77
2020/12/17 00:23:35;;;;;;;5.70;3.78;;;21.40;55.00;;;;;;5244977;28;20056;-79
2020/12/17 00:26:05;;;;;;;6.32;3.67;;;21.40;55.00;;;;;;5244187;28;20076;-78
2020/12/17 00:28:36;;;;;;;4.47;3.92;;;21.40;55.00;;;;;;5241831;28;20029;-79
2020/12/17 00:31:06;;;;;;;5.38;3.65;;;21.40;55.00;;;;;;5206577;28;20033;-80
2020/12/17 00:33:37;;;;;;;4.18;3.70;;;21.40;54.90;;;;;;5227945;28;20029;-80
2020/12/17 00:36:08;;;;;;;3.33;3.00;;;21.40;55.50;;;;;;5227078;28;20040;-78
2020/12/17 00:38:38;;;;;;;4.53;3.63;;;21.40;54.90;;;;;;5210055;28;20060;-79
2020/12/17 00:41:13;;;;;;;4.38;3.80;;;21.40;54.80;;;;;;5241702;28;20032;-77
2020/12/17 00:43:44;;;;;;;3.60;3.30;;;21.40;54.80;;;;;;5226138;28;20021;-79
2020/12/17 00:46:16;;;;;;;5.35;3.42;;;21.40;54.80;;;;;;5208343;28;20702;-78
2020/12/17 00:48:46;;;;;;;4.47;3.65;;;21.30;54.70;;;;;;5208874;28;20021;-77
2020/12/17 00:51:20;;;;;;;4.28;3.40;;;21.40;54.80;;;;;;5241882;28;20076;-79
2020/12/17 00:53:50;;;;;;;6.25;3.47;;;21.40;54.80;;;;;;5242692;28;20025;-79
2020/12/17 00:56:21;;;;;;;5.13;3.53;;;21.40;54.80;;;;;;5226115;28;20510;-79
2020/12/17 00:58:51;;;;;;;5.20;3.40;;;21.40;54.90;;;;;;5243876;28;20029;-78
2020/12/17 01:01:22;;;;;;;3.53;3.20;;;21.40;55.00;;;;;;5204800;28;20846;-78
2020/12/17 01:03:52;;;;;;;3.95;3.03;;;21.50;54.90;;;;;;5215724;28;20037;-78
2020/12/17 01:06:23;;;;;;;3.70;3.30;;;21.50;54.80;;;;;;5227443;28;20407;-78
2020/12/17 01:08:53;;;;;;;3.53;3.22;;;21.50;54.80;;;;;;5227536;28;20064;-79
2020/12/17 01:11:27;;;;;;;4.97;3.30;;;21.50;54.70;;;;;;5243458;28;20074;-80
2020/12/17 01:13:58;;;;;;;5.43;3.28;;;21.50;54.70;;;;;;5210910;28;20040;-78
2020/12/17 01:16:28;;;;;;;5.20;3.42;;;21.50;54.70;;;;;;5225698;28;20025;-78
2020/12/17 01:18:59;;;;;;;4.03;3.38;;;21.50;54.60;;;;;;5241818;28;20033;-79
2020/12/17 01:21:29;;;;;;;3.60;3.20;;;21.50;54.60;;;;;;5209069;28;20040;-77
2020/12/17 01:24:00;;;;;;;3.53;3.22;;;21.50;54.60;;;;;;5243928;28;20017;-78
2020/12/17 01:26:30;;;;;;;3.90;3.50;;;21.60;54.60;;;;;;5226691;28;20438;-79
2020/12/17 01:29:01;;;;;;;4.43;3.45;;;21.50;54.50;;;;;;5226513;28;20057;-78
2020/12/17 01:31:31;;;;;;;4.55;3.38;;;21.50;54.50;;;;;;5242447;28;20033;-79
2020/12/17 01:34:02;;;;;;;4.57;3.05;;;21.50;54.50;;;;;;5225786;28;20028;-79
2020/12/17 01:36:32;;;;;;;3.95;3.55;;;21.50;54.60;;;;;;5205782;28;20029;-78
2020/12/17 01:39:03;;;;;;;3.35;3.05;;;21.50;54.50;;;;;;5225376;28;20068;-80
2020/12/17 01:41:33;;;;;;;3.30;3.00;;;21.50;54.50;;;;;;5242000;28;20499;-80
2020/12/17 01:44:04;;;;;;;5.60;3.33;;;21.50;54.60;;;;;;5193182;28;20053;-78
2020/12/17 01:46:34;;;;;;;3.58;2.75;;;21.50;54.60;;;;;;5208604;28;20044;-79
2020/12/17 01:49:05;;;;;;;3.50;3.20;;;21.50;54.50;;;;;;5226448;28;20032;-78
2020/12/17 01:51:35;;;;;;;4.85;3.22;;;21.50;54.50;;;;;;5208580;28;20033;-79
2020/12/17 01:54:06;;;;;;;4.22;3.63;;;21.50;54.40;;;;;;5243341;28;20028;-79
2020/12/17 01:56:37;;;;;;;3.50;3.10;;;21.50;54.40;;;;;;5225301;28;20065;-79
2020/12/17 01:59:20;;;;;;;3.90;3.17;;;21.50;54.20;;;;;;5226704;28;20067;-80
2020/12/17 02:01:52;;;;;;;3.30;3.00;;;21.50;54.20;;;;;;5209655;28;20075;-79
2020/12/17 02:04:23;;;;;;;3.47;3.17;;;21.50;54.20;;;;;;5226491;28;20013;-78
2020/12/17 02:06:54;;;;;;;3.55;3.25;;;21.50;54.20;;;;;;5209337;28;20033;-79
2020/12/17 02:09:24;;;;;;;3.72;3.20;;;21.40;54.20;;;;;;5227221;28;20032;-78
2020/12/17 02:11:55;;;;;;;4.00;3.13;;;21.50;54.10;;;;;;5208996;28;20040;-79
2020/12/17 02:14:26;;;;;;;3.97;3.13;;;21.40;54.20;;;;;;5244752;28;20044;-78
2020/12/17 02:16:57;;;;;;;3.45;3.10;;;21.50;54.10;;;;;;5206679;28;20033;-79
2020/12/17 02:19:27;;;;;;;4.22;3.20;;;21.50;54.30;;;;;;5224622;28;20116;-78
2020/12/17 02:21:57;;;;;;;2.95;2.65;;;21.50;54.20;;;;;;5211408;28;20460;-78
2020/12/17 02:24:28;;;;;;;3.45;2.95;;;21.50;54.10;;;;;;5229301;28;20035;-78
2020/12/17 02:26:58;;;;;;;3.50;3.20;;;21.50;54.00;;;;;;5228040;28;20410;-78
2020/12/17 02:29:29;;;;;;;3.20;2.90;;;21.40;54.10;;;;;;5224078;28;20037;-78
2020/12/17 02:31:59;;;;;;;3.80;3.13;;;21.40;54.10;;;;;;5222008;28;20036;-78
2020/12/17 02:34:30;;;;;;;3.00;2.70;;;21.40;54.00;;;;;;5228468;28;20033;-79
2020/12/17 02:37:00;;;;;;;3.38;3.08;;;21.40;54.10;;;;;;5227544;28;20092;-80
2020/12/17 02:39:33;;;;;;;3.28;2.97;;;21.40;53.80;;;;;;5210685;28;20033;-80
2020/12/17 02:42:04;;;;;;;3.47;3.08;;;21.40;53.90;;;;;;5209909;28;20116;-78
2020/12/17 02:44:35;;;;;;;3.40;2.90;;;21.40;53.90;;;;;;5245081;28;20100;-79
2020/12/17 02:47:05;;;;;;;4.57;3.40;;;21.40;53.90;;;;;;5189643;28;20152;-80
2020/12/17 02:49:36;;;;;;;3.28;2.97;;;21.40;53.80;;;;;;5242303;28;20028;-79
2020/12/17 02:52:06;;;;;;;2.90;2.60;;;21.40;53.80;;;;;;5227891;28;20115;-78
2020/12/17 02:54:37;;;;;;;3.25;2.70;;;21.40;53.70;;;;;;5194679;28;20087;-80
2020/12/17 02:57:07;;;;;;;3.70;2.97;;;21.50;53.80;;;;;;5227081;28;20069;-79
2020/12/17 02:59:38;;;;;;;3.53;3.10;;;21.40;53.70;;;;;;5211820;28;20027;-80
2020/12/17 03:02:08;;;;;;;3.58;2.80;;;21.40;53.80;;;;;;5211649;28;20025;-77
2020/12/17 03:04:39;;;;;;;3.80;3.10;;;21.40;53.70;;;;;;5223479;28;20024;-78
2020/12/17 03:07:09;;;;;;;3.40;2.47;;;21.40;53.80;;;;;;5223668;28;20079;-79
2020/12/17 03:09:40;;;;;;;5.50;3.33;;;21.40;53.70;;;;;;5240861;28;20033;-77
2020/12/17 03:12:10;;;;;;;4.53;2.45;;;21.50;54.00;;;;;;5223789;28;20037;-78
2020/12/17 03:14:41;;;;;;;3.10;2.80;;;21.50;54.10;;;;;;5227237;28;20529;-79
2020/12/17 03:17:11;;;;;;;5.07;3.10;;;21.50;54.50;;;;;;5219761;28;20037;-80
2020/12/17 03:19:42;;;;;;;7.53;3.28;;;21.50;53.80;;;;;;5205438;28;20475;-79
2020/12/17 03:22:12;;;;;;;3.75;2.80;;;21.40;53.70;;;;;;5207029;28;20033;-79
2020/12/17 03:24:43;;;;;;;4.57;3.05;;;21.40;53.70;;;;;;5239945;28;20024;-77
2020/12/17 03:27:13;;;;;;;5.15;3.22;;;21.40;53.40;;;;;;5240019;28;20581;-79
2020/12/17 03:29:44;;;;;;;4.78;3.20;;;21.40;53.30;;;;;;5223839;28;20110;-80
2020/12/17 03:32:14;;;;;;;3.20;2.90;;;21.40;53.30;;;;;;5218354;28;20034;-79
2020/12/17 03:34:45;;;;;;;3.55;2.90;;;21.40;53.30;;;;;;5203910;28;20037;-77
2020/12/17 03:37:15;;;;;;;3.75;2.92;;;21.30;53.20;;;;;;5212623;28;20052;-78
2020/12/17 03:39:46;;;;;;;4.20;3.10;;;21.30;53.20;;;;;;5218274;28;20022;-79
2020/12/17 03:42:17;;;;;;;3.95;3.22;;;21.30;53.30;;;;;;5218033;28;20037;-79
2020/12/17 03:44:47;;;;;;;3.70;3.17;;;21.30;53.10;;;;;;5199456;28;20022;-78
2020/12/17 03:47:18;;;;;;;4.82;3.00;;;21.30;53.20;;;;;;5219941;28;20043;-79
2020/12/17 03:49:48;;;;;;;4.60;3.10;;;21.30;53.00;;;;;;5223201;28;20038;-77
2020/12/17 03:52:19;;;;;;;3.70;3.17;;;21.30;53.00;;;;;;5223559;28;20029;-80
2020/12/17 03:54:49;;;;;;;4.13;3.20;;;21.30;53.10;;;;;;5222934;28;20112;-79
2020/12/17 03:57:20;;;;;;;5.95;3.15;;;21.20;52.90;;;;;;5238533;28;20033;-78
2020/12/17 03:59:50;;;;;;;4.28;3.13;;;21.20;52.90;;;;;;5224095;28;20036;-79
2020/12/17 04:02:21;;;;;;;3.35;2.97;;;21.20;52.80;;;;;;5220551;28;20711;-79
2020/12/17 04:04:51;;;;;;;3.95;3.28;;;21.20;53.40;;;;;;5206140;28;20029;-79
2020/12/17 04:07:22;;;;;;;4.68;3.15;;;21.20;52.70;;;;;;5222379;28;20511;-79
2020/12/17 04:09:53;;;;;;;3.35;2.90;;;21.20;52.70;;;;;;5222859;28;20564;-79
2020/12/17 04:12:23;;;;;;;3.42;2.90;;;21.20;52.80;;;;;;5239325;28;20044;-78
2020/12/17 04:14:54;;;;;;;2.92;2.63;;;21.20;52.70;;;;;;5223028;28;20033;-79
2020/12/17 04:17:24;;;;;;;3.40;2.75;;;21.20;52.80;;;;;;5223610;28;20056;-79
2020/12/17 04:19:55;;;;;;;3.45;2.88;;;21.20;52.70;;;;;;5207667;28;20036;-79
2020/12/17 04:22:25;;;;;;;3.53;2.85;;;21.20;52.90;;;;;;5242498;28;20079;-78
2020/12/17 04:24:56;;;;;;;3.30;2.83;;;21.20;52.70;;;;;;5242580;28;20505;-79
2020/12/17 04:27:26;;;;;;;3.35;3.03;;;21.20;52.60;;;;;;5225996;28;20033;-79
2020/12/17 04:29:56;;;;;;;3.42;3.13;;;21.20;52.60;;;;;;5209258;28;20037;-79
2020/12/17 04:32:28;;;;;;;5.18;3.20;;;21.20;52.60;;;;;;5225134;28;20415;-78
2020/12/17 04:34:58;;;;;;;4.22;2.90;;;21.20;52.70;;;;;;5243870;28;20025;-78
2020/12/17 04:37:29;;;;;;;3.67;2.90;;;21.20;52.60;;;;;;5189341;28;20082;-78
2020/12/17 04:39:59;;;;;;;2.72;2.47;;;21.20;52.70;;;;;;5189894;28;20480;-79
2020/12/17 04:42:30;;;;;;;3.72;2.90;;;21.10;52.60;;;;;;5208508;28;20026;-78
2020/12/17 04:45:01;;;;;;;2.80;2.42;;;21.20;52.60;;;;;;5218195;28;20036;-78
2020/12/17 04:47:31;;;;;;;3.50;2.83;;;21.20;52.90;;;;;;5192597;28;20040;-78
2020/12/17 04:50:05;;;;;;;4.88;3.10;;;21.20;52.60;;;;;;5225647;28;20041;-78
2020/12/17 04:52:37;;;;;;;4.40;3.08;;;21.10;52.60;;;;;;5209023;28;20083;-78
2020/12/17 04:55:08;;;;;;;3.13;2.65;;;21.10;52.50;;;;;;5208341;28;20041;-78
2020/12/17 04:57:44;;;;;;;3.70;2.90;;;21.10;52.90;;;;;;5192491;28;20402;-78
2020/12/17 05:00:15;;;;;;;5.13;3.20;;;21.20;52.90;;;;;;5205641;28;20026;-78
2020/12/17 05:02:46;;;;;;;3.22;2.92;;;21.10;52.90;;;;;;5205984;28;20040;-77
2020/12/17 05:05:17;;;;;;;4.07;3.33;;;21.10;52.90;;;;;;5187910;28;20022;-78
2020/12/17 05:07:47;;;;;;;4.97;2.97;;;21.10;52.80;;;;;;5205060;28;20449;-78
2020/12/17 05:10:18;;;;;;;17.17;3.40;;;21.20;52.80;;;;;;5204314;28;20064;-78
2020/12/17 05:12:48;;;;;;;3.50;3.00;;;21.20;53.00;;;;;;5207996;28;20021;-78
2020/12/17 05:15:23;;;;;;;3.53;3.08;;;21.20;53.00;;;;;;5224239;28;20017;-78
2020/12/17 05:17:54;;;;;;;3.88;3.15;;;21.10;52.90;;;;;;5224943;28;20043;-78
2020/12/17 05:20:26;;;;;;;4.65;3.20;;;21.10;52.90;;;;;;5224670;28;20399;-78
2020/12/17 05:22:56;;;;;;;3.38;3.08;;;21.10;52.90;;;;;;5224847;28;20068;-79
2020/12/17 05:25:27;;;;;;;3.33;3.00;;;21.10;52.90;;;;;;5225621;28;20040;-79
2020/12/17 05:28:01;;;;;;;4.55;3.10;;;21.10;52.80;;;;;;5209112;28;20525;-78
2020/12/17 05:30:33;;;;;;;3.63;3.10;;;21.10;52.80;;;;;;5224664;28;20036;-79
2020/12/17 05:33:03;;;;;;;5.10;3.00;;;21.10;52.80;;;;;;5208987;28;20025;-79
2020/12/17 05:35:35;;;;;;;4.65;2.90;;;21.10;52.70;;;;;;5225474;28;20529;-78
2020/12/17 05:38:07;;;;;;;3.80;3.20;;;21.10;52.70;;;;;;5225547;28;20031;-78
2020/12/17 05:40:41;;;;;;;5.80;3.05;;;21.10;52.80;;;;;;5225054;28;20545;-79
2020/12/17 05:43:11;;;;;;;3.45;2.70;;;21.10;52.70;;;;;;5225518;28;20090;-79
2020/12/17 05:45:42;;;;;;;3.38;2.90;;;21.10;52.70;;;;;;5224083;28;20025;-80
2020/12/17 05:48:20;;;;;;;3.78;3.00;;;21.00;52.60;;;;;;5216406;28;20025;-78
2020/12/17 05:50:52;;;;;;;3.70;3.10;;;21.00;52.60;;;;;;5225055;28;20060;-78
2020/12/17 05:53:38;;;;;;;4.90;2.92;;;21.00;52.60;;;;;;5244370;28;20488;-80
2020/12/17 05:56:11;;;;;;;;;;;21.10;52.30;;;;;;5210935;28;20045;-79
2020/12/17 05:58:44;;;;;;;5.13;3.30;;;21.10;52.30;;;;;;5227423;28;19966;-80
2020/12/17 06:01:16;;;;;;;3.78;2.80;;;21.10;52.30;;;;;;5210337;28;20116;-79
2020/12/17 06:03:47;;;;;;;4.35;2.95;;;21.10;52.20;;;;;;5243580;28;20096;-78
2020/12/17 06:06:17;;;;;;;3.42;2.85;;;21.10;52.30;;;;;;5210057;28;20036;-79
2020/12/17 06:08:52;;;;;;;3.80;2.90;;;21.10;52.10;;;;;;5207853;28;20506;-78
2020/12/17 06:11:23;;;;;;;3.30;2.97;;;21.10;52.10;;;;;;5240705;28;20041;-78
2020/12/17 06:13:57;;;;;;;4.65;2.97;;;21.10;52.00;;;;;;5241011;28;20035;-79
2020/12/17 06:16:27;;;;;;;6.18;3.13;;;21.10;52.10;;;;;;5223370;28;20039;-78
2020/12/17 06:18:58;;;;;;;5.85;3.22;;;21.10;52.20;;;;;;5241379;28;20104;-79
2020/12/17 06:21:28;;;;;;;3.35;2.97;;;21.10;51.90;;;;;;5219696;28;20030;-79
2020/12/17 06:23:59;;;;;;;3.67;3.10;;;21.10;52.10;;;;;;5215911;28;20026;-79
2020/12/17 06:26:30;;;;;;;4.18;3.05;;;21.10;52.00;;;;;;5215163;28;20033;-78
2020/12/17 06:29:00;;;;;;;3.30;2.80;;;21.10;51.90;;;;;;5241010;28;20099;-79
2020/12/17 06:31:31;;;;;;;5.68;3.10;;;21.10;52.00;;;;;;5206578;28;20439;-78
2020/12/17 06:34:06;;;;;;;3.85;3.42;;;21.10;52.30;;;;;;5191198;28;20062;-77
2020/12/17 06:36:42;;;;;;;4.10;3.30;;;21.10;52.00;;;;;;5206319;28;20048;-78
2020/12/17 06:39:12;;;;;;;3.60;2.80;;;21.10;51.80;;;;;;5240478;28;20025;-78
2020/12/17 06:41:42;;;;;;;3.47;2.97;;;21.10;51.90;;;;;;5239493;28;20037;-78
2020/12/17 06:44:30;;;;;;;5.03;3.50;;;21.10;52.10;;;;;;5223115;28;20483;-78
2020/12/17 06:47:01;;;;;;;4.05;2.95;;;21.10;51.80;;;;;;5205728;28;20044;-78
2020/12/17 06:49:32;;;;;;;3.65;3.13;;;21.00;51.90;;;;;;5241025;28;20235;-77
2020/12/17 06:52:07;;;;;;;3.63;2.92;;;21.10;51.70;;;;;;5222736;28;20120;-78
2020/12/17 06:54:39;;;;;;;3.53;3.20;;;21.10;51.80;;;;;;5240493;28;20376;-78
2020/12/17 06:57:14;;;;;;;4.90;2.92;;;21.10;52.00;;;;;;5223072;28;20040;-78
2020/12/17 06:59:46;;;;;;;3.47;3.00;;;21.10;51.90;;;;;;5239990;28;20070;-78
2020/12/17 07:02:17;;;;;;;3.28;2.95;;;21.10;51.90;;;;;;5205931;28;20033;-78
2020/12/17 07:04:48;;;;;;;3.40;3.08;;;21.10;51.80;;;;;;5240895;28;20018;-77
2020/12/17 07:07:23;;;;;;;3.25;2.95;;;21.10;51.80;;;;;;5223222;28;20033;-79
2020/12/17 07:09:54;;;;;;;3.55;3.20;;;21.10;51.70;;;;;;5224128;28;20580;-79
2020/12/17 07:12:34;;;;;;;3.83;3.15;;;21.10;51.70;;;;;;5239039;28;20041;-78
2020/12/17 07:15:33;;;;;;;6.13;3.65;;;21.10;51.70;;;;;;5223404;28;20032;-78
2020/12/17 07:18:20;;;;;;;10.13;3.35;;;21.10;51.70;;;;;;5222975;28;20119;-77
2020/12/17 07:20:52;;;;;;;18.63;3.45;;;21.10;52.20;;;;;;5222925;28;20039;-78
2020/12/17 07:23:23;;;;;;;6.55;3.13;;;21.10;52.10;;;;;;5222823;28;20093;-79
2020/12/17 07:25:53;;;;;;;4.95;3.55;;;21.00;52.00;;;;;;5221778;28;20483;-78
2020/12/17 07:28:25;;;;;;;6.13;3.58;;;21.10;51.80;;;;;;5238944;28;20048;-78
2020/12/17 07:30:55;;;;;;;4.20;3.28;;;21.10;51.70;;;;;;5205129;28;20029;-78
2020/12/17 07:33:38;;;;;;;4.13;3.33;;;21.10;51.60;;;;;;5215383;28;20044;-78
2020/12/17 07:36:09;;;;;;;4.93;3.22;;;21.10;51.30;;;;;;5223177;28;20129;-77
2020/12/17 07:38:39;;;;;;;4.07;3.33;;;21.10;51.30;;;;;;5219672;28;20049;-78
2020/12/17 07:41:28;;;;;;;7.60;4.20;;;21.10;51.20;;;;;;5217046;28;20047;-78
2020/12/17 07:43:59;;;;;;;5.88;3.83;;;21.10;51.20;;;;;;5218554;28;20504;-78
2020/12/17 07:46:47;;;;;;;4.43;3.70;;;21.00;51.10;;;;;;5213661;28;20044;-78
2020/12/17 07:49:22;;;;;;;5.07;3.50;;;21.00;51.20;;;;;;5222074;28;20033;-79
2020/12/17 07:51:52;;;;;;;5.65;3.40;;;21.00;51.20;;;;;;5197237;28;20029;-78
2020/12/17 07:54:23;;;;;;;3.63;3.03;;;21.00;51.10;;;;;;5194755;28;20045;-78
2020/12/17 07:57:00;;;;;;;6.70;5.65;;;21.10;51.20;;;;;;5185462;28;20033;-77
2020/12/17 07:59:30;;;;;;;5.50;3.58;;;21.00;51.10;;;;;;5237161;28;20100;-78
2020/12/17 08:02:04;;;;;;;6.32;5.10;;;21.00;51.10;;;;;;5214215;28;20059;-78
2020/12/17 08:04:35;;;;;;;6.18;5.30;;;21.00;50.50;;;;;;5193513;28;20025;-77
2020/12/17 08:07:08;;;;;;;7.57;5.82;;;20.90;51.60;;;;;;5200047;28;20030;-79
2020/12/17 08:09:38;;;;;;;7.43;5.63;;;20.80;51.60;;;;;;5234445;28;20098;-79
2020/12/17 08:12:10;;;;;;;7.55;5.60;;;20.80;51.80;;;;;;5191723;28;20057;-80
2020/12/17 08:14:41;;;;;;;8.23;5.78;;;20.80;52.20;;;;;;5205383;28;20022;-79
2020/12/17 08:17:11;;;;;;;10.65;5.32;;;20.70;52.20;;;;;;5218140;28;20395;-79
2020/12/17 08:19:42;;;;;;;7.88;5.50;;;20.80;52.30;;;;;;5186556;28;20028;-79
2020/12/17 08:22:12;;;;;;;8.70;5.63;;;20.70;51.70;;;;;;5225580;28;20869;-79
2020/12/17 08:24:43;;;;;;;7.07;5.50;;;20.80;52.20;;;;;;5226492;28;20029;-79
2020/12/17 08:27:13;;;;;;;8.55;5.82;;;20.70;52.10;;;;;;5243243;28;20052;-80
2020/12/17 08:29:46;;;;;;;8.68;6.13;;;20.70;52.50;;;;;;5210704;28;20033;-77
2020/12/17 08:32:17;;;;;;;8.18;6.13;;;20.70;52.70;;;;;;5208821;28;20414;-79
2020/12/17 08:34:54;;;;;;;6.45;5.25;;;20.60;52.50;;;;;;5241584;28;20020;-79
2020/12/17 08:37:25;;;;;;;9.88;6.18;;;20.60;53.00;;;;;;5220024;28;20057;-79
2020/12/17 08:40:00;;;;;;;5.25;3.63;;;20.60;53.50;;;;;;5235578;28;20025;-79
2020/12/17 08:42:35;;;;;;;7.13;4.20;;;20.60;54.00;;;;;;5208709;28;20213;-78
2020/12/17 08:45:10;;;;;;;6.07;4.00;;;20.70;54.00;;;;;;5226708;28;20746;-80
2020/12/17 08:47:41;;;;;;;6.70;4.47;;;20.80;53.80;;;;;;5196811;28;20071;-79
2020/12/17 08:50:12;;;;;;;7.57;4.55;;;20.80;53.60;;;;;;5229900;28;20037;-78
2020/12/17 08:52:43;;;;;;;9.32;4.20;;;20.80;53.50;;;;;;5249073;28;20017;-79
2020/12/17 08:55:14;;;;;;;7.80;4.40;;;20.90;53.60;;;;;;5242516;28;20030;-79
2020/12/17 08:57:45;;;;;;;6.50;4.20;;;20.90;53.50;;;;;;5210057;28;20016;-79
2020/12/17 09:00:19;;;;;;;6.97;3.88;;;20.90;53.40;;;;;;5206111;28;20041;-79
2020/12/17 09:02:56;;;;;;;8.73;4.28;;;20.90;53.40;;;;;;5187937;28;20025;-80
2020/12/17 09:05:27;;;;;;;6.25;4.10;;;20.90;53.20;;;;;;5206168;28;20037;-79
2020/12/17 09:07:59;;;;;;;5.95;4.32;;;20.90;53.10;;;;;;5237739;28;20491;-80
2020/12/17 09:10:33;;;;;;;6.65;4.60;;;20.90;53.30;;;;;;5224065;28;20380;-78
2020/12/17 09:13:03;;;;;;;8.45;4.15;;;20.90;53.40;;;;;;5225315;28;20037;-79
2020/12/17 09:15:34;;;;;;;6.10;4.30;;;20.90;53.20;;;;;;5201237;28;20083;-79
2020/12/17 09:18:11;;;;;;;5.05;3.80;;;20.90;53.10;;;;;;5220566;28;20063;-78
2020/12/17 09:20:41;;;;;;;7.43;4.72;;;20.90;53.20;;;;;;5229288;28;20025;-79
2020/12/17 09:23:12;;;;;;;6.43;3.78;;;20.80;53.20;;;;;;5212428;28;20094;-79
2020/12/17 09:25:43;;;;;;;6.65;4.30;;;20.80;53.10;;;;;;5244872;28;20029;-79
2020/12/17 09:28:22;;;;;;;5.85;4.95;;;20.80;53.10;;;;;;5222082;28;20045;-79
2020/12/17 09:30:52;;;;;;;4.60;3.67;;;20.80;53.00;;;;;;5191795;28;20033;-79
2020/12/17 09:33:24;;;;;;;5.90;4.05;;;20.80;53.00;;;;;;5237048;28;20031;-81
2020/12/17 09:35:55;;;;;;;5.70;4.70;;;20.80;52.80;;;;;;5226184;28;20494;-82
2020/12/17 09:38:25;;;;;;;5.32;3.42;;;20.80;52.50;;;;;;5207678;28;20060;-83
2020/12/17 09:40:56;;;;;;;5.95;4.00;;;20.80;52.70;;;;;;5209936;28;20021;-82
2020/12/17 09:43:26;;;;;;;6.00;4.32;;;20.70;52.60;;;;;;5226568;28;20032;-81
2020/12/17 09:45:57;;;;;;;5.35;3.97;;;20.70;52.50;;;;;;5216978;28;20030;-78
2020/12/17 09:48:31;;;;;;;6.35;4.30;;;20.70;52.50;;;;;;5212405;28;20063;-79
2020/12/17 09:51:04;;;;;;;8.27;4.00;;;20.70;52.50;;;;;;5211310;28;20037;-78
2020/12/17 09:53:41;;;;;;;4.93;3.55;;;20.70;51.80;;;;;;5237598;28;20027;-79
2020/12/17 09:56:16;;;;;;;6.60;4.25;;;20.70;52.70;;;;;;5224810;28;20124;-79
2020/12/17 09:58:46;;;;;;;6.35;4.57;;;20.70;52.10;;;;;;5220010;28;20070;-79
2020/12/17 10:01:17;;;;;;;6.80;4.22;;;20.70;52.50;;;;;;5237244;28;20052;-79
2020/12/17 10:03:47;;;;;;;5.18;3.85;;;20.70;52.80;;;;;;5241408;28;20019;-77
2020/12/17 10:06:18;;;;;;;7.15;4.22;;;20.70;52.40;;;;;;5225908;28;20021;-79
2020/12/17 10:08:48;;;;;;;4.68;4.10;;;20.70;51.60;;;;;;5223668;28;20024;-78
2020/12/17 10:11:19;;;;;;;3.83;3.10;;;20.70;52.50;;;;;;5230415;28;20048;-78
2020/12/17 10:13:50;;;;;;;7.30;3.15;;;20.70;52.30;;;;;;5242869;28;20029;-76
2020/12/17 10:16:41;;;;;;;4.95;3.60;;;20.70;52.50;;;;;;5232510;28;20519;-79
2020/12/17 10:19:22;;;;;;;5.50;3.33;;;20.70;52.40;;;;;;5208713;28;20066;-79
2020/12/17 10:21:53;;;;;;;3.75;3.10;;;20.70;52.30;;;;;;5237341;28;20045;-79
2020/12/17 10:24:23;;;;;;;4.22;3.15;;;20.70;52.60;;;;;;5210172;28;20048;-79
2020/12/17 10:26:54;;;;;;;6.05;3.90;;;20.70;52.60;;;;;;5231291;28;20503;-79
2020/12/17 10:29:25;;;;;;;5.70;4.38;;;20.70;52.50;;;;;;5244177;28;20029;-79
2020/12/17 10:31:55;;;;;;;4.65;3.20;;;20.60;52.60;;;;;;5226703;28;20407;-79
2020/12/17 10:34:26;;;;;;;5.07;3.13;;;20.70;53.20;;;;;;5209553;28;20529;-79
2020/12/17 10:36:56;;;;;;;6.60;3.60;;;20.60;52.60;;;;;;5235251;28;20577;-80
2020/12/17 10:39:27;;;;;;;4.70;3.63;;;20.70;52.60;;;;;;5194374;28;20037;-79
2020/12/17 10:42:00;;;;;;;5.65;4.00;;;20.70;52.60;;;;;;5223185;28;20541;-77
2020/12/17 10:44:31;;;;;;;5.53;3.65;;;20.60;52.80;;;;;;5202902;28;20022;-79
2020/12/17 10:47:02;;;;;;;4.10;3.53;;;20.60;52.70;;;;;;5219775;28;20044;-77
2020/12/17 10:49:33;;;;;;;4.88;3.67;;;20.60;52.60;;;;;;5230000;28;20474;-79
2020/12/17 10:52:04;;;;;;;3.60;2.92;;;20.50;52.90;;;;;;5204602;28;20041;-79
2020/12/17 10:54:34;;;;;;;5.07;3.38;;;20.60;52.80;;;;;;5204159;28;20120;-80
2020/12/17 10:57:05;;;;;;;5.25;3.85;;;20.70;52.70;;;;;;5192650;28;20038;-79
2020/12/17 10:59:35;;;;;;;5.15;4.53;;;20.70;52.50;;;;;;5227879;28;20044;-80
2020/12/17 11:02:06;;;;;;;6.20;4.15;;;20.40;51.30;;;;;;5194944;28;20025;-80
2020/12/17 11:04:36;;;;;;;5.97;4.93;;;20.10;51.80;;;;;;5216748;28;20024;-78
2020/12/17 11:07:07;;;;;;;8.13;5.30;;;19.70;52.30;;;;;;5246187;28;20040;-80
2020/12/17 11:09:37;;;;;;;5.13;4.32;;;19.60;52.60;;;;;;5234008;28;20496;-78
2020/12/17 11:12:08;;;;;;;6.93;4.07;;;19.80;54.50;;;;;;5206534;28;20562;-81
2020/12/17 11:14:39;;;;;;;4.25;3.10;;;20.10;54.00;;;;;;5207587;28;20079;-81
2020/12/17 11:17:09;;;;;;;3.22;2.60;;;20.30;53.90;;;;;;5199578;28;20135;-81
2020/12/17 11:19:40;;;;;;;3.05;2.25;;;20.50;53.60;;;;;;5211396;28;20094;-79
2020/12/17 11:22:10;;;;;;;4.10;2.50;;;20.60;53.50;;;;;;5227879;28;20487;-80
2020/12/17 11:24:41;;;;;;;4.32;2.90;;;20.70;53.80;;;;;;5247825;28;20032;-80
2020/12/17 11:27:12;;;;;;;4.93;2.75;;;20.80;53.60;;;;;;5210803;28;20029;-81
2020/12/17 11:29:42;;;;;;;5.15;2.88;;;20.80;53.70;;;;;;5198471;28;20031;-81
2020/12/17 11:32:13;;;;;;;11.75;4.45;;;20.80;53.90;;;;;;5250305;28;20033;-82
2020/12/17 11:34:43;;;;;;;138.68;27.25;;;20.80;57.30;;;;;;5234561;28;20025;-81
2020/12/17 11:37:14;;;;;;;89.88;16.20;;;20.80;61.90;;;;;;5234756;28;20058;-81
2020/12/17 11:39:44;;;;;;;46.28;10.55;;;20.90;61.50;;;;;;5208272;28;20037;-83
2020/12/17 11:42:15;;;;;;;40.75;8.40;;;20.90;60.60;;;;;;5248282;28;20060;-82
2020/12/17 11:44:45;;;;;;;27.00;8.70;;;20.90;60.30;;;;;;5249283;28;20479;-82
2020/12/17 11:47:16;;;;;;;33.33;8.85;;;20.90;59.70;;;;;;5229745;28;20036;-82
2020/12/17 11:49:46;;;;;;;24.00;6.72;;;20.90;59.50;;;;;;5233165;28;20061;-82
2020/12/17 11:52:17;;;;;;;24.63;6.40;;;20.90;59.20;;;;;;5212003;28;20112;-82
2020/12/17 11:54:47;;;;;;;19.42;6.47;;;20.90;58.80;;;;;;5211007;28;20117;-81
2020/12/17 11:57:18;;;;;;;20.30;6.10;;;20.90;58.60;;;;;;5211287;28;20035;-82
2020/12/17 11:59:48;;;;;;;16.63;5.75;;;21.00;58.60;;;;;;5196449;28;20021;-82
2020/12/17 12:02:19;;;;;;;19.45;6.05;;;21.00;58.60;;;;;;5212422;28;20037;-83
2020/12/17 12:04:49;;;;;;;16.23;5.47;;;21.00;58.40;;;;;;5215127;28;20028;-81
2020/12/17 12:07:23;;;;;;;13.50;5.35;;;20.90;58.40;;;;;;5214195;28;20040;-83
2020/12/17 12:09:53;;;;;;;16.77;5.55;;;21.00;58.40;;;;;;5215065;28;20117;-82
2020/12/17 12:12:24;;;;;;;13.90;4.88;;;21.00;58.10;;;;;;5214149;28;20057;-81
2020/12/17 12:14:54;;;;;;;13.88;4.93;;;21.00;58.20;;;;;;5216362;28;20029;-82
2020/12/17 12:17:25;;;;;;;14.90;4.90;;;21.00;57.90;;;;;;5214353;28;20034;-81
2020/12/17 12:19:55;;;;;;;13.45;4.82;;;21.00;57.90;;;;;;5200150;28;20041;-82
2020/12/17 12:22:26;;;;;;;18.60;4.93;;;21.00;57.60;;;;;;5215889;28;20403;-82
2020/12/17 12:24:56;;;;;;;10.95;4.47;;;21.10;57.60;;;;;;5216880;28;20499;-82
2020/12/17 12:27:27;;;;;;;10.80;4.00;;;21.10;57.50;;;;;;5216515;28;20033;-81
2020/12/17 12:29:57;;;;;;;14.77;4.72;;;21.10;57.50;;;;;;5217448;28;20033;-82
2020/12/17 12:32:28;;;;;;;10.18;4.43;;;21.10;57.30;;;;;;5214812;28;20037;-82
2020/12/17 12:34:58;;;;;;;11.00;3.60;;;21.10;57.20;;;;;;5216972;28;20091;-82
2020/12/17 12:37:29;;;;;;;11.65;3.78;;;21.10;57.20;;;;;;5216942;28;20041;-83
2020/12/17 12:39:59;;;;;;;7.35;3.50;;;21.10;57.20;;;;;;5218708;28;20479;-83
2020/12/17 12:42:30;;;;;;;12.18;3.70;;;21.10;57.10;;;;;;5214230;28;20032;-82
2020/12/17 12:45:00;;;;;;;9.45;3.88;;;21.10;56.90;;;;;;5215790;28;20032;-82
2020/12/17 12:47:31;;;;;;;7.47;3.42;;;21.20;56.80;;;;;;5213531;28;20414;-82
2020/12/17 12:50:02;;;;;;;6.72;3.10;;;21.10;56.80;;;;;;5215880;28;20044;-80
2020/12/17 12:52:32;;;;;;;10.23;3.65;;;21.10;56.80;;;;;;5198709;28;20471;-81
2020/12/17 12:55:03;;;;;;;8.80;3.40;;;21.10;56.80;;;;;;5214953;28;20029;-83
2020/12/17 12:57:35;;;;;;;8.27;3.42;;;21.10;56.80;;;;;;5214576;28;20044;-81
2020/12/17 13:00:05;;;;;;;8.45;3.08;;;21.10;56.80;;;;;;5213352;28;20479;-82
2020/12/17 13:02:36;;;;;;;8.82;3.30;;;21.10;56.70;;;;;;5212981;28;20032;-82
2020/12/17 13:05:08;;;;;;;5.68;3.00;;;21.10;56.70;;;;;;5214984;28;20022;-83
2020/12/17 13:07:38;;;;;;;5.38;2.63;;;21.10;56.50;;;;;;5226748;28;20045;-83